Time;durP1;ratioP1;P1;durP2;ratioP2;P2;SDS_P1;SDS_P2;PMS_P1;PMS_P2;Temp;Humidity;BMP_temperature;BMP_pressure;BME280_temperature;BME280_humidity;BME280_pressure;Samples;Min_cycle;Max_cycle;Signal;HPM_P1;HPM_P2
2023/08/13 00:01:31;;;;;;;7.10;5.60;;;22.80;86.40;;;;;;5054306;28;20492;-69
2023/08/13 00:03:58;;;;;;;5.60;4.80;;;22.80;86.80;;;;;;5054203;28;20472;-69
2023/08/13 00:06:25;;;;;;;5.80;5.20;;;22.80;87.00;;;;;;5054091;28;20495;-69
2023/08/13 00:08:52;;;;;;;5.90;4.90;;;22.80;87.10;;;;;;5053791;28;20956;-69
2023/08/13 00:11:19;;;;;;;6.10;4.50;;;22.80;87.10;;;;;;5053714;28;20493;-69
2023/08/13 00:13:47;;;;;;;8.83;5.73;;;22.80;87.40;;;;;;5053897;28;20923;-69
2023/08/13 00:16:14;;;;;;;6.43;3.97;;;22.70;87.50;;;;;;5053948;28;20507;-69
2023/08/13 00:18:41;;;;;;;9.03;5.53;;;22.70;88.60;;;;;;5053152;28;20472;-70
2023/08/13 00:21:10;;;;;;;7.20;4.40;;;22.70;88.10;;;;;;5053655;28;20448;-69
2023/08/13 00:23:37;;;;;;;7.97;4.00;;;22.70;88.30;;;;;;5053843;28;20433;-69
2023/08/13 00:26:04;;;;;;;6.87;5.13;;;22.70;88.40;;;;;;5053721;28;20460;-69
2023/08/13 00:28:31;;;;;;;6.20;4.30;;;22.70;88.30;;;;;;5053457;28;20467;-69
2023/08/13 00:31:00;;;;;;;6.10;4.60;;;22.60;88.40;;;;;;5053720;28;20907;-71
2023/08/13 00:33:27;;;;;;;6.90;4.23;;;22.60;88.50;;;;;;5053705;28;20465;-69
2023/08/13 00:35:54;;;;;;;9.93;5.80;;;22.60;88.40;;;;;;5053642;28;20773;-69
2023/08/13 00:38:21;;;;;;;8.13;4.83;;;22.60;88.90;;;;;;5053299;28;20440;-69
2023/08/13 00:40:48;;;;;;;8.70;5.83;;;22.60;88.80;;;;;;5053350;28;20494;-69
2023/08/13 00:43:15;;;;;;;12.23;7.10;;;22.50;88.80;;;;;;5053361;28;20451;-69
2023/08/13 00:45:42;;;;;;;12.70;5.90;;;22.50;88.90;;;;;;5053227;28;20961;-69
2023/08/13 00:48:11;;;;;;;7.10;5.10;;;22.40;88.90;;;;;;5053569;28;20798;-69
2023/08/13 00:50:38;;;;;;;9.27;5.20;;;22.40;89.10;;;;;;5053515;28;20534;-69
2023/08/13 00:53:06;;;;;;;9.10;5.60;;;22.30;89.50;;;;;;5053131;28;20997;-69
2023/08/13 00:55:33;;;;;;;10.07;6.13;;;22.30;89.70;;;;;;5053435;28;20439;-69
2023/08/13 00:58:01;;;;;;;7.70;5.07;;;22.20;90.00;;;;;;5053347;28;20558;-69
2023/08/13 01:00:28;;;;;;;9.30;5.10;;;22.20;90.10;;;;;;5053077;28;20863;-69
2023/08/13 01:02:56;;;;;;;7.40;5.10;;;22.10;90.40;;;;;;5053704;28;20481;-69
2023/08/13 01:05:32;;;;;;;8.20;5.40;;;22.10;90.60;;;;;;5053318;28;20477;-69
2023/08/13 01:08:06;;;;;;;10.60;6.33;;;22.00;90.90;;;;;;5053445;28;20511;-69
2023/08/13 01:10:36;;;;;;;8.30;4.77;;;21.90;91.10;;;;;;5052556;28;20499;-69
2023/08/13 01:13:09;;;;;;;7.67;5.17;;;21.90;91.20;;;;;;5053302;28;20440;-69
2023/08/13 01:15:39;;;;;;;7.67;5.17;;;21.90;91.20;;;;;;5052948;28;20932;-69
2023/08/13 01:18:10;;;;;;;9.13;5.47;;;21.90;91.30;;;;;;5053389;28;20802;-69
2023/08/13 01:20:40;;;;;;;7.60;5.07;;;21.90;91.40;;;;;;5053562;28;20447;-70
2023/08/13 01:23:08;;;;;;;6.17;4.70;;;21.90;91.40;;;;;;5053337;28;20463;-69
2023/08/13 01:25:36;;;;;;;10.60;5.10;;;21.90;91.40;;;;;;5052718;28;20530;-69
2023/08/13 01:28:12;;;;;;;6.20;3.90;;;21.80;91.00;;;;;;5052440;28;20440;-69
2023/08/13 01:30:45;;;;;;;8.10;5.10;;;21.80;91.10;;;;;;5054052;28;20423;-70
2023/08/13 01:33:15;;;;;;;8.50;4.70;;;21.80;91.40;;;;;;5057242;28;20511;-69
2023/08/13 01:35:44;;;;;;;7.20;4.47;;;21.80;91.50;;;;;;5056822;28;20466;-69
2023/08/13 01:38:13;;;;;;;6.67;4.40;;;21.70;91.10;;;;;;5056589;28;20474;-69
2023/08/13 01:40:40;;;;;;;7.50;5.70;;;21.70;90.80;;;;;;5056562;28;20526;-70
2023/08/13 01:43:07;;;;;;;7.17;4.90;;;21.60;90.90;;;;;;5056855;28;20508;-69
2023/08/13 01:45:34;;;;;;;8.57;5.03;;;21.60;91.30;;;;;;5056848;28;20483;-69
2023/08/13 01:48:01;;;;;;;8.03;5.93;;;21.50;91.50;;;;;;5056797;28;20435;-69
2023/08/13 01:50:30;;;;;;;6.10;5.30;;;21.50;91.90;;;;;;5056436;28;20441;-70
2023/08/13 01:52:57;;;;;;;7.00;5.13;;;21.40;92.10;;;;;;5056610;28;20999;-69
2023/08/13 01:55:25;;;;;;;7.37;5.83;;;21.40;92.20;;;;;;5056428;28;20471;-70
2023/08/13 01:57:52;;;;;;;9.70;5.83;;;21.40;92.20;;;;;;5056188;28;20510;-69
2023/08/13 02:00:20;;;;;;;8.63;5.60;;;21.40;92.20;;;;;;5056535;28;20443;-69
2023/08/13 02:02:47;;;;;;;8.50;4.80;;;21.40;92.20;;;;;;5056206;28;20479;-70
2023/08/13 02:05:14;;;;;;;5.87;4.53;;;21.40;92.40;;;;;;5056411;28;20511;-69
2023/08/13 02:07:41;;;;;;;9.03;5.23;;;21.30;92.50;;;;;;5056314;28;20856;-69
2023/08/13 02:10:09;;;;;;;9.00;5.07;;;21.30;92.70;;;;;;5056011;28;20465;-69
2023/08/13 02:12:37;;;;;;;6.00;5.20;;;21.30;92.80;;;;;;5055931;28;20981;-69
2023/08/13 02:15:05;;;;;;;8.13;5.33;;;21.20;93.20;;;;;;5055974;28;20462;-69
2023/08/13 02:17:32;;;;;;;5.57;4.90;;;21.20;93.30;;;;;;5056197;28;20577;-69
2023/08/13 02:19:59;;;;;;;6.73;5.23;;;21.20;93.50;;;;;;5055818;28;20523;-69
2023/08/13 02:22:26;;;;;;;5.43;4.67;;;21.20;93.50;;;;;;5055793;28;21000;-69
2023/08/13 02:24:53;;;;;;;8.50;5.80;;;21.20;93.60;;;;;;5056066;28;20525;-69
2023/08/13 02:27:20;;;;;;;7.07;5.67;;;21.10;93.70;;;;;;5056037;28;20530;-69
2023/08/13 02:29:48;;;;;;;6.43;5.40;;;21.10;93.90;;;;;;5055631;28;20531;-69
2023/08/13 02:32:15;;;;;;;7.73;4.97;;;21.10;94.20;;;;;;5056115;28;20471;-69
2023/08/13 02:34:44;;;;;;;7.03;5.63;;;21.10;94.40;;;;;;5055864;28;20934;-69
2023/08/13 02:37:12;;;;;;;8.70;4.93;;;21.00;94.60;;;;;;5055752;28;20526;-69
2023/08/13 02:39:39;;;;;;;8.77;5.00;;;21.00;94.70;;;;;;5055485;28;20968;-69
2023/08/13 02:42:06;;;;;;;6.17;4.93;;;20.90;94.90;;;;;;5055003;28;20491;-70
2023/08/13 02:44:33;;;;;;;7.40;6.13;;;20.90;94.80;;;;;;5055762;28;20468;-69
2023/08/13 02:47:01;;;;;;;5.97;4.50;;;21.00;94.80;;;;;;5055683;28;20859;-70
2023/08/13 02:49:28;;;;;;;7.50;5.17;;;21.00;94.70;;;;;;5055667;28;20475;-69
2023/08/13 02:51:55;;;;;;;6.67;5.00;;;21.00;94.70;;;;;;5055577;28;20438;-70
2023/08/13 02:54:22;;;;;;;7.23;5.10;;;21.00;94.90;;;;;;5055249;28;20475;-69
2023/08/13 02:56:49;;;;;;;8.87;6.37;;;20.90;95.20;;;;;;5055018;28;20472;-69
2023/08/13 02:59:16;;;;;;;7.37;4.57;;;20.90;95.20;;;;;;5055457;28;20501;-69
2023/08/13 03:01:45;;;;;;;7.17;5.30;;;20.90;95.20;;;;;;5055082;28;20475;-70
2023/08/13 03:04:13;;;;;;;10.10;5.97;;;21.00;95.10;;;;;;5055089;28;20930;-69
2023/08/13 03:06:40;;;;;;;8.80;4.90;;;21.00;95.10;;;;;;5055338;28;20443;-69
2023/08/13 03:09:08;;;;;;;6.03;5.03;;;21.00;95.00;;;;;;5055249;28;20430;-70
2023/08/13 03:11:35;;;;;;;8.50;5.80;;;21.00;94.70;;;;;;5054838;28;20874;-69
2023/08/13 03:14:02;;;;;;;6.10;4.97;;;21.00;94.50;;;;;;5055106;28;20472;-69
2023/08/13 03:16:29;;;;;;;6.00;4.70;;;20.90;94.50;;;;;;5055033;28;20793;-70
2023/08/13 03:18:56;;;;;;;7.50;5.70;;;20.90;94.70;;;;;;5055004;28;20480;-69
2023/08/13 03:21:24;;;;;;;8.33;5.40;;;20.90;94.90;;;;;;5055257;28;20431;-69
2023/08/13 03:23:51;;;;;;;6.57;5.47;;;20.90;95.00;;;;;;5054713;28;20471;-70
2023/08/13 03:26:18;;;;;;;6.20;5.03;;;20.90;94.90;;;;;;5054503;28;20465;-69
2023/08/13 03:28:45;;;;;;;18.73;6.10;;;20.90;94.90;;;;;;5055000;28;20473;-69
2023/08/13 03:31:13;;;;;;;7.37;5.50;;;20.90;94.80;;;;;;5054890;28;20474;-69
2023/08/13 03:33:40;;;;;;;6.13;5.20;;;20.80;94.60;;;;;;5054890;28;20468;-69
2023/08/13 03:36:07;;;;;;;7.90;5.70;;;20.80;94.50;;;;;;5054765;28;20474;-70
2023/08/13 03:38:35;;;;;;;7.57;5.57;;;20.70;94.70;;;;;;5054707;28;20470;-69
2023/08/13 03:41:02;;;;;;;8.03;5.50;;;20.70;94.80;;;;;;5054163;28;20522;-69
2023/08/13 03:43:29;;;;;;;6.60;5.43;;;20.70;95.00;;;;;;5054572;28;20516;-70
2023/08/13 03:45:56;;;;;;;9.03;5.10;;;20.70;95.10;;;;;;5054573;28;20500;-69
2023/08/13 03:48:23;;;;;;;6.70;5.27;;;20.70;94.70;;;;;;5054613;28;20863;-69
2023/08/13 03:50:50;;;;;;;8.03;5.40;;;20.70;94.50;;;;;;5054108;28;20661;-72
2023/08/13 03:53:22;;;;;;;6.03;5.33;;;20.70;94.50;;;;;;5053247;28;20471;-69
2023/08/13 03:55:50;;;;;;;8.43;5.93;;;20.60;94.40;;;;;;5054309;28;20783;-69
2023/08/13 03:58:17;;;;;;;8.60;4.97;;;20.60;94.70;;;;;;5053903;28;20569;-71
2023/08/13 04:00:46;;;;;;;6.13;4.70;;;20.50;94.70;;;;;;5054075;28;20531;-69
2023/08/13 04:03:13;;;;;;;7.17;4.50;;;20.50;94.70;;;;;;5054208;28;20511;-70
2023/08/13 04:05:40;;;;;;;6.17;4.60;;;20.50;94.70;;;;;;5054272;28;20483;-70
2023/08/13 04:08:07;;;;;;;8.30;6.00;;;20.50;94.50;;;;;;5053798;28;20530;-69
2023/08/13 04:10:34;;;;;;;6.67;4.90;;;20.40;94.50;;;;;;5053326;28;20465;-69
2023/08/13 04:13:02;;;;;;;7.67;5.30;;;20.40;94.50;;;;;;5053639;28;20934;-70
2023/08/13 04:15:29;;;;;;;6.80;5.10;;;20.30;94.50;;;;;;5053959;28;20436;-69
2023/08/13 04:17:56;;;;;;;6.70;4.23;;;20.30;94.40;;;;;;5053456;28;20500;-69
2023/08/13 04:20:23;;;;;;;8.33;5.50;;;20.20;94.20;;;;;;5053825;28;20968;-69
2023/08/13 04:22:50;;;;;;;7.13;5.70;;;20.10;94.10;;;;;;5053976;28;20439;-69
2023/08/13 04:25:17;;;;;;;8.57;4.30;;;20.10;94.70;;;;;;5053858;28;20836;-69
2023/08/13 04:27:44;;;;;;;6.30;4.93;;;20.10;94.20;;;;;;5053763;28;20497;-69
2023/08/13 04:30:13;;;;;;;6.27;4.50;;;20.10;94.30;;;;;;5053691;28;20795;-69
2023/08/13 04:32:52;;;;;;;6.50;5.20;;;20.00;94.70;;;;;;5053435;28;20530;-69
2023/08/13 04:35:19;;;;;;;15.67;6.33;;;20.00;94.90;;;;;;5053632;28;20550;-69
2023/08/13 04:37:46;;;;;;;7.57;6.40;;;19.90;95.40;;;;;;5053515;28;20525;-69
2023/08/13 04:40:13;;;;;;;6.93;4.77;;;19.90;95.90;;;;;;5053545;28;20474;-69
2023/08/13 04:42:41;;;;;;;6.80;5.40;;;19.90;96.20;;;;;;5053508;28;20522;-69
2023/08/13 04:45:09;;;;;;;7.10;4.73;;;20.00;96.40;;;;;;5053537;28;20446;-69
2023/08/13 04:47:37;;;;;;;13.73;5.27;;;20.00;96.20;;;;;;5053551;28;20439;-69
2023/08/13 04:50:05;;;;;;;6.50;5.10;;;20.00;96.20;;;;;;5053191;28;20522;-69
2023/08/13 04:52:32;;;;;;;5.97;4.90;;;20.00;96.00;;;;;;5053109;28;20599;-69
2023/08/13 04:54:59;;;;;;;8.07;6.00;;;20.00;96.20;;;;;;5053040;28;20474;-69
2023/08/13 04:57:26;;;;;;;6.40;4.93;;;19.90;96.50;;;;;;5053285;28;20519;-69
2023/08/13 04:59:53;;;;;;;5.27;4.67;;;19.90;96.80;;;;;;5053068;28;20441;-69
2023/08/13 05:02:20;;;;;;;5.80;4.40;;;20.00;97.00;;;;;;5053288;28;20463;-69
2023/08/13 05:04:48;;;;;;;5.10;4.17;;;20.00;97.10;;;;;;5052830;28;20471;-69
2023/08/13 05:07:15;;;;;;;7.20;5.00;;;20.10;97.10;;;;;;5053238;28;20442;-69
2023/08/13 05:09:42;;;;;;;6.03;4.93;;;20.10;96.80;;;;;;5050314;28;20975;-69
2023/08/13 05:12:10;;;;;;;5.07;4.27;;;20.20;96.90;;;;;;5052965;28;20861;-69
2023/08/13 05:14:36;;;;;;;9.73;6.90;;;20.10;97.10;;;;;;5053090;28;20486;-69
2023/08/13 05:17:16;;;;;;;7.67;5.10;;;20.10;97.30;;;;;;5053198;28;20467;-69
2023/08/13 05:19:43;;;;;;;9.10;5.40;;;20.10;97.80;;;;;;5050697;28;20861;-69
2023/08/13 05:22:11;;;;;;;7.93;5.20;;;20.10;98.00;;;;;;5052175;28;20444;-69
2023/08/13 05:24:38;;;;;;;13.60;6.27;;;20.10;98.10;;;;;;5053150;28;20522;-69
2023/08/13 05:27:05;;;;;;;13.10;6.80;;;20.30;98.20;;;;;;5052704;28;20521;-69
2023/08/13 05:29:32;;;;;;;20.37;6.90;;;20.40;98.30;;;;;;5052710;28;20447;-69
2023/08/13 05:31:59;;;;;;;20.10;6.87;;;20.40;98.30;;;;;;5053005;28;20513;-69
2023/08/13 05:34:26;;;;;;;18.00;7.00;;;20.50;98.30;;;;;;5052944;28;20447;-70
2023/08/13 05:36:53;;;;;;;18.20;6.87;;;20.50;98.20;;;;;;5052724;28;20472;-69
2023/08/13 05:39:22;;;;;;;15.23;5.77;;;20.60;98.20;;;;;;5052402;28;21020;-69
2023/08/13 05:41:49;;;;;;;12.57;5.27;;;20.70;97.90;;;;;;5052545;28;20496;-69
2023/08/13 05:44:16;;;;;;;6.87;4.20;;;20.80;97.90;;;;;;5052919;28;20475;-69
2023/08/13 05:46:43;;;;;;;6.80;3.47;;;20.90;97.90;;;;;;5052630;28;20472;-69
2023/08/13 05:49:10;;;;;;;7.23;3.93;;;21.00;97.90;;;;;;5052635;28;20939;-69
2023/08/13 05:51:37;;;;;;;5.60;4.50;;;21.10;97.80;;;;;;5052847;28;20850;-69
2023/08/13 05:54:04;;;;;;;6.37;4.77;;;21.20;97.90;;;;;;5052300;28;20460;-69
2023/08/13 05:56:33;;;;;;;7.50;4.90;;;21.30;98.00;;;;;;5052490;28;20924;-69
2023/08/13 05:59:00;;;;;;;5.07;3.90;;;21.40;98.20;;;;;;5052453;28;20507;-69
2023/08/13 06:01:28;;;;;;;7.93;4.40;;;21.40;98.10;;;;;;5052687;28;20445;-69
2023/08/13 06:03:55;;;;;;;6.03;4.90;;;21.50;98.20;;;;;;5052484;28;20476;-69
2023/08/13 06:06:22;;;;;;;5.10;3.90;;;21.60;98.20;;;;;;5052442;28;20474;-69
2023/08/13 06:08:49;;;;;;;5.83;3.80;;;21.60;98.10;;;;;;5052284;28;20482;-69
2023/08/13 06:11:16;;;;;;;7.90;4.47;;;21.70;97.90;;;;;;5051715;28;20836;-73
2023/08/13 06:13:44;;;;;;;7.70;4.73;;;21.80;97.70;;;;;;5052505;28;20864;-69
2023/08/13 06:16:11;;;;;;;8.03;5.40;;;21.90;97.50;;;;;;5053057;28;20433;-69
2023/08/13 06:18:38;;;;;;;4.80;3.93;;;21.90;97.50;;;;;;5054691;28;20472;-69
2023/08/13 06:21:07;;;;;;;5.90;3.40;;;22.00;97.70;;;;;;5055845;28;20496;-71
2023/08/13 06:23:39;;;;;;;5.73;3.83;;;22.10;97.00;;;;;;5055924;28;20440;-69
2023/08/13 06:26:06;;;;;;;5.93;4.13;;;22.20;96.40;;;;;;5055986;28;20431;-69
2023/08/13 06:28:33;;;;;;;6.90;3.73;;;22.20;96.30;;;;;;5056097;28;20524;-69
2023/08/13 06:31:02;;;;;;;7.80;4.43;;;22.30;96.20;;;;;;5055760;28;20981;-69
2023/08/13 06:33:29;;;;;;;7.60;4.40;;;22.30;96.20;;;;;;5055564;28;20969;-70
2023/08/13 06:35:56;;;;;;;5.40;3.53;;;22.40;96.40;;;;;;5055860;28;20436;-69
2023/08/13 06:38:24;;;;;;;5.90;3.40;;;22.50;96.60;;;;;;5055861;28;20480;-75
2023/08/13 06:40:51;;;;;;;5.73;3.50;;;22.60;96.80;;;;;;5055660;28;20913;-71
2023/08/13 06:43:18;;;;;;;6.90;3.80;;;22.70;97.00;;;;;;5055456;28;20438;-69
2023/08/13 06:45:47;;;;;;;4.50;3.70;;;22.80;97.00;;;;;;5055420;28;20942;-69
2023/08/13 06:48:15;;;;;;;4.93;3.93;;;22.90;97.10;;;;;;5055339;28;20520;-69
2023/08/13 06:50:42;;;;;;;6.53;3.60;;;23.00;97.10;;;;;;5055638;28;20800;-70
2023/08/13 06:53:09;;;;;;;6.70;3.60;;;23.10;97.10;;;;;;5055586;28;20441;-69
2023/08/13 06:55:36;;;;;;;5.30;3.87;;;23.30;97.20;;;;;;5055146;28;20473;-70
2023/08/13 06:58:04;;;;;;;4.70;3.37;;;23.30;96.90;;;;;;5055434;28;20433;-70
2023/08/13 07:00:31;;;;;;;4.50;3.17;;;23.40;96.50;;;;;;5055151;28;20441;-69
2023/08/13 07:02:58;;;;;;;5.57;3.43;;;23.50;96.10;;;;;;5055490;28;20465;-69
2023/08/13 07:05:26;;;;;;;4.80;2.93;;;23.60;95.80;;;;;;5055561;28;20469;-69
2023/08/13 07:07:53;;;;;;;3.50;2.60;;;23.70;95.40;;;;;;5055346;28;20519;-70
2023/08/13 07:10:20;;;;;;;4.70;3.10;;;23.80;95.20;;;;;;5055062;28;20465;-69
2023/08/13 07:12:47;;;;;;;7.20;4.07;;;23.90;95.30;;;;;;5055259;28;20457;-69
2023/08/13 07:15:14;;;;;;;3.90;2.60;;;24.00;95.20;;;;;;5054958;28;20555;-69
2023/08/13 07:17:41;;;;;;;6.70;3.50;;;24.00;94.10;;;;;;5055366;28;20842;-69
2023/08/13 07:20:13;;;;;;;4.40;2.63;;;24.10;94.00;;;;;;5055063;28;20567;-69
2023/08/13 07:22:42;;;;;;;6.87;3.67;;;24.20;93.80;;;;;;5055284;28;20410;-69
2023/08/13 07:25:11;;;;;;;5.70;3.07;;;24.30;93.80;;;;;;5054630;28;20871;-70
2023/08/13 07:27:39;;;;;;;4.63;2.83;;;24.40;93.90;;;;;;5054025;28;20441;-69
2023/08/13 07:30:07;;;;;;;3.73;3.03;;;24.60;93.70;;;;;;5054532;28;20524;-69
2023/08/13 07:32:36;;;;;;;7.57;3.33;;;24.60;92.50;;;;;;5055200;28;20441;-70
2023/08/13 07:35:04;;;;;;;4.17;2.90;;;24.70;92.10;;;;;;5054567;28;20471;-70
2023/08/13 07:37:31;;;;;;;4.40;2.83;;;24.80;92.50;;;;;;5054838;28;20440;-69
2023/08/13 07:40:00;;;;;;;5.87;2.80;;;24.80;91.90;;;;;;5054876;28;20515;-70
2023/08/13 07:42:27;;;;;;;4.63;3.40;;;24.90;91.90;;;;;;5054624;28;20476;-69
2023/08/13 07:44:54;;;;;;;5.63;3.30;;;25.10;91.80;;;;;;5054718;28;20507;-70
2023/08/13 07:47:21;;;;;;;4.33;2.47;;;25.20;91.00;;;;;;5054642;28;20852;-70
2023/08/13 07:49:48;;;;;;;3.97;2.50;;;25.40;90.50;;;;;;5054445;28;20447;-70
2023/08/13 07:52:15;;;;;;;4.30;2.87;;;25.50;90.50;;;;;;5054529;28;20457;-70
2023/08/13 07:54:42;;;;;;;4.90;2.70;;;25.60;90.20;;;;;;5054490;28;20506;-70
2023/08/13 07:57:10;;;;;;;4.70;2.77;;;25.70;88.90;;;;;;5054440;28;20822;-69
2023/08/13 07:59:37;;;;;;;4.80;2.90;;;25.80;89.00;;;;;;5053992;28;20575;-70
2023/08/13 08:02:04;;;;;;;5.73;3.20;;;26.00;88.60;;;;;;5053963;28;20441;-70
2023/08/13 08:04:36;;;;;;;5.40;3.03;;;26.10;86.70;;;;;;5053928;28;20503;-70
2023/08/13 08:07:03;;;;;;;3.60;2.10;;;26.30;85.40;;;;;;5054453;28;20457;-70
2023/08/13 08:09:30;;;;;;;4.23;2.73;;;26.40;84.80;;;;;;5053926;28;20453;-70
2023/08/13 08:11:57;;;;;;;4.10;2.93;;;26.50;83.10;;;;;;5054358;28;20465;-70
2023/08/13 08:14:26;;;;;;;4.10;2.90;;;26.60;81.90;;;;;;5054158;28;20516;-70
2023/08/13 08:17:00;;;;;;;4.30;3.03;;;26.80;83.40;;;;;;5053519;28;20457;-69
2023/08/13 08:19:27;;;;;;;6.00;2.77;;;26.90;83.10;;;;;;5053390;28;20523;-70
2023/08/13 08:21:56;;;;;;;6.70;2.63;;;27.00;83.00;;;;;;5053951;28;20429;-72
2023/08/13 08:24:23;;;;;;;4.67;3.43;;;27.20;82.60;;;;;;5053467;28;20434;-70
2023/08/13 08:26:50;;;;;;;4.67;3.00;;;27.40;82.50;;;;;;5054067;28;20537;-70
2023/08/13 08:29:17;;;;;;;7.67;3.30;;;27.50;81.90;;;;;;5053494;28;20477;-69
2023/08/13 08:31:46;;;;;;;5.10;3.27;;;27.70;81.70;;;;;;5053758;28;20464;-71
2023/08/13 08:34:13;;;;;;;5.40;2.80;;;27.90;81.20;;;;;;5053759;28;20525;-70
2023/08/13 08:36:40;;;;;;;4.13;3.10;;;28.00;79.70;;;;;;5053428;28;20916;-70
2023/08/13 08:39:07;;;;;;;5.47;3.63;;;28.20;77.30;;;;;;5053264;28;20504;-70
2023/08/13 08:41:37;;;;;;;5.07;3.03;;;28.30;77.20;;;;;;5053619;28;20436;-69
2023/08/13 08:44:06;;;;;;;4.70;3.20;;;28.30;76.50;;;;;;5053342;28;20523;-69
2023/08/13 08:46:34;;;;;;;3.50;3.00;;;28.50;77.80;;;;;;5053485;28;20437;-70
2023/08/13 08:49:03;;;;;;;4.33;3.40;;;28.70;77.10;;;;;;5053172;28;21018;-70
2023/08/13 08:51:31;;;;;;;5.70;3.30;;;28.80;77.40;;;;;;5053564;28;20476;-70
2023/08/13 08:53:59;;;;;;;5.40;4.23;;;28.90;76.20;;;;;;5053822;28;20441;-70
2023/08/13 08:56:26;;;;;;;5.90;3.20;;;29.10;75.50;;;;;;5053003;28;20848;-70
2023/08/13 08:58:53;;;;;;;4.93;3.07;;;29.20;74.10;;;;;;5052937;28;20465;-70
2023/08/13 09:01:20;;;;;;;5.13;3.67;;;29.40;74.50;;;;;;5052991;28;20525;-70
2023/08/13 09:03:47;;;;;;;11.30;4.30;;;29.50;72.90;;;;;;5053440;28;20472;-70
2023/08/13 09:06:15;;;;;;;3.73;2.93;;;29.50;70.50;;;;;;5053410;28;20521;-70
2023/08/13 09:08:42;;;;;;;4.83;3.80;;;29.70;72.60;;;;;;5053454;28;20469;-69
2023/08/13 09:11:10;;;;;;;5.37;3.80;;;29.80;70.50;;;;;;5053365;28;20461;-69
2023/08/13 09:13:37;;;;;;;5.97;3.40;;;29.90;71.50;;;;;;5053335;28;20517;-73
2023/08/13 09:16:04;;;;;;;7.47;3.83;;;30.10;71.50;;;;;;5052936;28;20479;-70
2023/08/13 09:18:39;;;;;;;6.53;3.90;;;30.20;72.00;;;;;;5053266;28;20520;-69
2023/08/13 09:21:06;;;;;;;4.03;3.00;;;30.30;70.60;;;;;;5052975;28;20421;-69
2023/08/13 09:23:39;;;;;;;4.67;3.33;;;30.40;72.10;;;;;;5052924;28;20497;-70
2023/08/13 09:26:06;;;;;;;4.67;3.57;;;30.50;68.50;;;;;;5052855;28;20421;-70
2023/08/13 09:28:34;;;;;;;4.47;3.20;;;30.70;69.40;;;;;;5052863;28;20437;-70
2023/08/13 09:31:01;;;;;;;5.03;3.60;;;30.70;65.50;;;;;;5053129;28;20448;-70
2023/08/13 09:33:29;;;;;;;5.83;3.60;;;30.90;67.50;;;;;;5053133;28;20480;-70
2023/08/13 09:35:56;;;;;;;4.70;3.90;;;31.00;65.70;;;;;;5052821;28;20434;-70
2023/08/13 09:38:23;;;;;;;7.67;3.87;;;31.20;64.10;;;;;;5053177;28;20516;-70
2023/08/13 09:40:52;;;;;;;7.50;3.73;;;31.20;65.00;;;;;;5052986;28;20511;-70
2023/08/13 09:43:25;;;;;;;5.20;3.80;;;31.30;65.10;;;;;;5053094;28;20472;-70
2023/08/13 09:45:53;;;;;;;6.17;4.87;;;31.50;64.70;;;;;;5052446;28;20952;-70
2023/08/13 09:48:27;;;;;;;5.97;3.83;;;31.50;61.30;;;;;;5052295;28;20491;-70
2023/08/13 09:50:57;;;;;;;4.13;3.33;;;31.50;59.90;;;;;;5052988;28;20975;-70
2023/08/13 09:53:25;;;;;;;5.37;3.93;;;31.60;62.60;;;;;;5056744;28;20469;-70
2023/08/13 09:55:58;;;;;;;5.60;4.00;;;31.80;63.60;;;;;;5056346;28;20473;-70
2023/08/13 09:58:25;;;;;;;5.53;3.53;;;31.90;61.90;;;;;;5056887;28;20592;-70
2023/08/13 10:00:53;;;;;;;5.27;2.90;;;32.00;61.20;;;;;;5056440;28;20480;-70
2023/08/13 10:03:20;;;;;;;5.17;3.50;;;32.10;61.30;;;;;;5056641;28;20529;-70
2023/08/13 10:05:48;;;;;;;5.27;3.97;;;32.20;61.10;;;;;;5056507;28;20675;-70
2023/08/13 10:08:16;;;;;;;5.13;3.53;;;32.30;59.60;;;;;;5055998;28;20461;-70
2023/08/13 10:10:44;;;;;;;4.77;3.30;;;32.50;58.70;;;;;;5055398;28;20543;-70
2023/08/13 10:13:12;;;;;;;4.87;3.70;;;32.50;58.50;;;;;;5056235;28;20528;-70
2023/08/13 10:15:40;;;;;;;5.20;3.10;;;32.50;57.60;;;;;;5055695;28;20528;-70
2023/08/13 10:18:11;;;;;;;4.30;2.90;;;32.60;57.10;;;;;;5056255;28;20483;-70
2023/08/13 10:20:44;;;;;;;5.30;3.67;;;32.70;56.70;;;;;;5056115;28;20462;-67
2023/08/13 10:23:12;;;;;;;4.90;3.93;;;32.80;56.60;;;;;;5055677;28;20436;-67
2023/08/13 10:25:41;;;;;;;6.23;3.93;;;32.80;57.20;;;;;;5055788;28;20476;-67
2023/08/13 10:28:23;;;;;;;4.83;3.00;;;32.90;56.30;;;;;;5055592;28;20437;-69
2023/08/13 10:30:50;;;;;;;4.47;3.43;;;33.00;56.20;;;;;;5055307;28;20425;-67
2023/08/13 10:33:17;;;;;;;4.27;3.50;;;33.00;55.70;;;;;;5055832;28;20480;-67
2023/08/13 10:35:44;;;;;;;5.70;3.33;;;33.10;55.30;;;;;;5055787;28;20469;-67
2023/08/13 10:38:11;;;;;;;7.30;3.60;;;33.10;54.40;;;;;;5055908;28;20760;-67
2023/08/13 10:40:59;;;;;;;7.13;4.20;;;33.20;53.80;;;;;;5055562;28;20564;-67
2023/08/13 10:43:27;;;;;;;6.47;3.03;;;33.30;53.80;;;;;;5055402;28;20437;-68
2023/08/13 10:45:55;;;;;;;4.73;3.53;;;33.30;53.90;;;;;;5055276;28;20516;-68
2023/08/13 10:48:27;;;;;;;4.43;3.40;;;33.40;54.50;;;;;;5055603;28;20475;-67
2023/08/13 10:50:56;;;;;;;4.73;3.20;;;33.50;52.40;;;;;;5055653;28;20436;-67
2023/08/13 10:53:24;;;;;;;5.33;3.37;;;33.50;52.10;;;;;;5055526;28;20516;-67
2023/08/13 10:55:53;;;;;;;5.93;3.67;;;33.50;50.90;;;;;;5055364;28;20473;-67
2023/08/13 10:58:25;;;;;;;4.20;2.93;;;33.50;50.50;;;;;;5055404;28;20499;-67
2023/08/13 11:00:59;;;;;;;6.10;3.10;;;33.40;49.90;;;;;;5055205;28;20505;-67
2023/08/13 11:03:30;;;;;;;5.83;3.43;;;33.40;50.80;;;;;;5054777;28;20960;-67
2023/08/13 11:05:57;;;;;;;4.17;3.27;;;33.50;51.60;;;;;;5055008;28;20432;-67
2023/08/13 11:08:26;;;;;;;4.70;3.13;;;33.50;50.50;;;;;;5055265;28;20433;-67
2023/08/13 11:10:53;;;;;;;3.67;2.90;;;33.60;51.50;;;;;;5054845;28;20504;-67
2023/08/13 11:13:21;;;;;;;4.50;3.27;;;33.70;50.60;;;;;;5055160;28;20532;-67
2023/08/13 11:15:54;;;;;;;5.30;3.00;;;33.70;50.40;;;;;;5055199;28;20457;-67
2023/08/13 11:18:22;;;;;;;5.40;3.47;;;33.70;50.10;;;;;;5054671;28;20453;-67
2023/08/13 11:20:50;;;;;;;9.00;3.60;;;33.80;50.30;;;;;;5054550;28;20512;-67
2023/08/13 11:23:18;;;;;;;3.70;2.87;;;33.80;51.40;;;;;;5054905;28;20512;-67
2023/08/13 11:25:48;;;;;;;4.20;2.97;;;33.80;51.50;;;;;;5054910;28;20433;-67
2023/08/13 11:28:20;;;;;;;5.87;3.63;;;33.90;50.90;;;;;;5055530;28;20511;-67
2023/08/13 11:30:47;;;;;;;6.00;3.07;;;33.90;50.10;;;;;;5055359;28;20448;-70
2023/08/13 11:33:15;;;;;;;7.37;3.40;;;34.00;50.20;;;;;;5055423;28;20516;-70
2023/08/13 11:35:43;;;;;;;4.00;2.80;;;34.10;49.30;;;;;;5055124;28;20524;-70
2023/08/13 11:38:10;;;;;;;5.00;2.80;;;34.10;50.10;;;;;;5054597;28;20477;-70
2023/08/13 11:40:37;;;;;;;6.10;3.43;;;34.20;49.50;;;;;;5054778;28;20563;-70
2023/08/13 11:43:05;;;;;;;5.70;3.30;;;34.20;49.60;;;;;;5054768;28;20442;-69
2023/08/13 11:45:33;;;;;;;5.77;3.23;;;34.20;49.20;;;;;;5054461;28;20847;-69
2023/08/13 11:48:10;;;;;;;4.80;3.10;;;34.20;48.90;;;;;;5054734;28;20512;-72
2023/08/13 11:50:40;;;;;;;5.07;3.07;;;34.20;49.40;;;;;;5054288;28;20908;-70
2023/08/13 11:53:10;;;;;;;3.63;3.00;;;34.20;49.40;;;;;;5054872;28;20433;-70
2023/08/13 11:55:39;;;;;;;5.37;3.27;;;34.20;48.20;;;;;;5054491;28;20429;-70
2023/08/13 11:58:06;;;;;;;3.87;2.97;;;34.20;48.90;;;;;;5054478;28;20763;-69
2023/08/13 12:00:33;;;;;;;3.80;3.07;;;34.30;49.60;;;;;;5054103;28;21057;-70
2023/08/13 12:03:01;;;;;;;4.20;3.20;;;34.30;48.90;;;;;;5054602;28;20512;-70
2023/08/13 12:05:29;;;;;;;5.10;3.60;;;34.30;49.10;;;;;;5054000;28;20486;-70
2023/08/13 12:07:59;;;;;;;5.10;4.00;;;34.30;48.90;;;;;;5053977;28;20469;-70
2023/08/13 12:10:27;;;;;;;5.60;3.30;;;34.30;50.50;;;;;;5053710;28;20493;-70
2023/08/13 12:12:55;;;;;;;5.63;3.77;;;34.30;49.30;;;;;;5054285;28;20787;-70
2023/08/13 12:15:23;;;;;;;8.33;3.73;;;34.30;50.30;;;;;;5053463;28;20469;-70
2023/08/13 12:17:50;;;;;;;5.67;3.77;;;34.30;49.60;;;;;;5053804;28;20932;-67
2023/08/13 12:20:17;;;;;;;5.10;3.23;;;34.30;49.40;;;;;;5053709;28;20564;-67
2023/08/13 12:22:44;;;;;;;4.90;3.43;;;34.30;49.80;;;;;;5054018;28;20461;-67
2023/08/13 12:25:13;;;;;;;6.93;3.17;;;34.30;49.80;;;;;;5054019;28;20490;-67
2023/08/13 12:27:41;;;;;;;7.53;3.30;;;34.40;49.80;;;;;;5053580;28;20480;-67
2023/08/13 12:30:10;;;;;;;4.60;3.40;;;34.30;48.90;;;;;;5053913;28;20476;-67
2023/08/13 12:32:37;;;;;;;4.10;3.10;;;34.30;45.90;;;;;;5053821;28;20472;-67
2023/08/13 12:35:04;;;;;;;4.10;3.27;;;34.30;47.30;;;;;;5053427;28;20528;-68
2023/08/13 12:37:31;;;;;;;5.33;3.90;;;34.30;46.80;;;;;;5053452;28;20516;-68
2023/08/13 12:39:58;;;;;;;5.97;3.33;;;34.20;45.60;;;;;;5053629;28;20465;-67
2023/08/13 12:42:27;;;;;;;5.00;3.10;;;34.10;45.00;;;;;;5053622;28;20473;-67
2023/08/13 12:44:54;;;;;;;3.73;2.60;;;34.00;45.20;;;;;;5053624;28;20473;-67
2023/08/13 12:47:21;;;;;;;6.07;3.83;;;34.10;47.00;;;;;;5053626;28;20494;-67
2023/08/13 12:49:48;;;;;;;6.33;3.57;;;34.10;46.60;;;;;;5053568;28;20445;-67